sensor_id;sensor_type;location;lat;lon;timestamp;pressure;altitude;pressure_sealevel;temperature;humidity
60437;BME280;46289;51.992;4.498;2023-01-30T00:00:21;102015.97;;;7.28;87.43
60437;BME280;46289;51.992;4.498;2023-01-30T00:02:26;102010.75;;;7.30;87.47
60437;BME280;46289;51.992;4.498;2023-01-30T00:04:32;102003.72;;;7.32;87.13
60437;BME280;46289;51.992;4.498;2023-01-30T00:06:39;102009.84;;;7.32;87.26
60437;BME280;46289;51.992;4.498;2023-01-30T00:08:45;102004.63;;;7.31;87.04
60437;BME280;46289;51.992;4.498;2023-01-30T00:10:50;101995.06;;;7.30;87.36
60437;BME280;46289;51.992;4.498;2023-01-30T00:12:58;101988.94;;;7.29;87.06
60437;BME280;46289;51.992;4.498;2023-01-30T00:15:07;101981.09;;;7.31;87.18
60437;BME280;46289;51.992;4.498;2023-01-30T00:17:11;101988.94;;;7.32;87.48
60437;BME280;46289;51.992;4.498;2023-01-30T00:19:17;101986.31;;;7.29;87.22
60437;BME280;46289;51.992;4.498;2023-01-30T00:21:22;101985.47;;;7.30;87.45
60437;BME280;46289;51.992;4.498;2023-01-30T00:23:29;101988.06;;;7.30;87.11
60437;BME280;46289;51.992;4.498;2023-01-30T00:25:37;101988.03;;;7.33;87.37
60437;BME280;46289;51.992;4.498;2023-01-30T00:27:42;101991.53;;;7.35;87.22
60437;BME280;46289;51.992;4.498;2023-01-30T00:29:51;101973.19;;;7.37;87.18
60437;BME280;46289;51.992;4.498;2023-01-30T00:32:04;101972.31;;;7.36;86.91
60437;BME280;46289;51.992;4.498;2023-01-30T00:34:09;101957.53;;;7.34;86.66
60437;BME280;46289;51.992;4.498;2023-01-30T00:36:16;101954.06;;;7.32;86.79
60437;BME280;46289;51.992;4.498;2023-01-30T00:38:22;101961.94;;;7.30;86.79
60437;BME280;46289;51.992;4.498;2023-01-30T00:40:28;101958.44;;;7.33;86.75
60437;BME280;46289;51.992;4.498;2023-01-30T00:42:33;101960.16;;;7.35;86.55
60437;BME280;46289;51.992;4.498;2023-01-30T00:44:53;101954.06;;;7.33;86.83
60437;BME280;46289;51.992;4.498;2023-01-30T00:47:10;101951.44;;;7.33;86.62
60437;BME280;46289;51.992;4.498;2023-01-30T00:49:16;101947.94;;;7.36;86.20
60437;BME280;46289;51.992;4.498;2023-01-30T00:51:23;101957.53;;;7.35;86.34
60437;BME280;46289;51.992;4.498;2023-01-30T00:53:29;101942.75;;;7.31;86.39
60437;BME280;46289;51.992;4.498;2023-01-30T00:55:37;101946.22;;;7.33;86.34
60437;BME280;46289;51.992;4.498;2023-01-30T00:57:45;101947.06;;;7.34;86.01
60437;BME280;46289;51.992;4.498;2023-01-30T00:59:50;101936.56;;;7.37;85.99
60437;BME280;46289;51.992;4.498;2023-01-30T01:01:58;101938.38;;;7.35;85.46
60437;BME280;46289;51.992;4.498;2023-01-30T01:04:04;101921.78;;;7.34;85.34
60437;BME280;46289;51.992;4.498;2023-01-30T01:06:11;101902.66;;;7.32;85.47
60437;BME280;46289;51.992;4.498;2023-01-30T01:08:16;101893.09;;;7.28;85.59
60437;BME280;46289;51.992;4.498;2023-01-30T01:10:23;101887.88;;;7.28;85.40
60437;BME280;46289;51.992;4.498;2023-01-30T01:12:29;101886.09;;;7.29;85.40
60437;BME280;46289;51.992;4.498;2023-01-30T01:14:37;101876.53;;;7.26;85.34
60437;BME280;46289;51.992;4.498;2023-01-30T01:16:42;101868.75;;;7.24;85.19
60437;BME280;46289;51.992;4.498;2023-01-30T01:18:53;101867.06;;;7.19;85.34
60437;BME280;46289;51.992;4.498;2023-01-30T01:21:01;101873.19;;;7.15;85.81
60437;BME280;46289;51.992;4.498;2023-01-30T01:23:08;101875.75;;;7.19;85.68
60437;BME280;46289;51.992;4.498;2023-01-30T01:25:16;101876.63;;;7.18;85.14
60437;BME280;46289;51.992;4.498;2023-01-30T01:27:22;101881.84;;;7.18;85.30
60437;BME280;46289;51.992;4.498;2023-01-30T01:29:29;101872.28;;;7.19;85.32
60437;BME280;46289;51.992;4.498;2023-01-30T01:31:36;101885.34;;;7.16;85.28
60437;BME280;46289;51.992;4.498;2023-01-30T01:33:42;101885.41;;;7.13;85.11
60437;BME280;46289;51.992;4.498;2023-01-30T01:35:50;101871.47;;;7.12;85.12
60437;BME280;46289;51.992;4.498;2023-01-30T01:37:57;101875.78;;;7.15;85.23
60437;BME280;46289;51.992;4.498;2023-01-30T01:40:03;101875.78;;;7.15;84.78
60437;BME280;46289;51.992;4.498;2023-01-30T01:42:21;101884.53;;;7.12;84.83
60437;BME280;46289;51.992;4.498;2023-01-30T01:44:56;101888.03;;;7.11;85.41
60437;BME280;46289;51.992;4.498;2023-01-30T01:47:02;101893.28;;;7.10;85.01
60437;BME280;46289;51.992;4.498;2023-01-30T01:49:13;101891.47;;;7.13;84.87
60437;BME280;46289;51.992;4.498;2023-01-30T01:51:25;101888.91;;;7.12;84.82
60437;BME280;46289;51.992;4.498;2023-01-30T01:53:37;101892.41;;;7.09;85.10
60437;BME280;46289;51.992;4.498;2023-01-30T01:55:49;101883.72;;;7.09;85.16
60437;BME280;46289;51.992;4.498;2023-01-30T01:58:01;101887.22;;;7.04;85.60
60437;BME280;46289;51.992;4.498;2023-01-30T02:00:11;101882.81;;;7.08;85.63
60437;BME280;46289;51.992;4.498;2023-01-30T02:02:18;101887.25;;;7.01;86.01
60437;BME280;46289;51.992;4.498;2023-01-30T02:04:25;101888.16;;;6.99;86.32
60437;BME280;46289;51.992;4.498;2023-01-30T02:06:46;101886.41;;;6.98;86.48
60437;BME280;46289;51.992;4.498;2023-01-30T02:08:53;101889.88;;;7.01;86.69
60437;BME280;46289;51.992;4.498;2023-01-30T02:11:05;101882.91;;;7.00;86.70
60437;BME280;46289;51.992;4.498;2023-01-30T02:13:12;101893.38;;;6.97;86.87
60437;BME280;46289;51.992;4.498;2023-01-30T02:15:18;101881.22;;;6.93;87.15
60437;BME280;46289;51.992;4.498;2023-01-30T02:17:24;101880.31;;;6.97;86.92
60437;BME280;46289;51.992;4.498;2023-01-30T02:19:34;101871.59;;;6.98;86.70
60437;BME280;46289;51.992;4.498;2023-01-30T02:22:14;101869.84;;;6.97;86.85
60437;BME280;46289;51.992;4.498;2023-01-30T02:24:36;101870.72;;;6.99;86.96
60437;BME280;46289;51.992;4.498;2023-01-30T02:27:03;101862.84;;;7.02;86.49
60437;BME280;46289;51.992;4.498;2023-01-30T02:29:41;101849.72;;;7.09;86.20
60437;BME280;46289;51.992;4.498;2023-01-30T02:32:00;101855.78;;;7.11;86.22
60437;BME280;46289;51.992;4.498;2023-01-30T02:34:19;101859.25;;;7.14;85.85
60437;BME280;46289;51.992;4.498;2023-01-30T02:36:37;101857.47;;;7.18;85.78
60437;BME280;46289;51.992;4.498;2023-01-30T02:38:50;101853.06;;;7.23;85.52
60437;BME280;46289;51.992;4.498;2023-01-30T02:41:09;101860.03;;;7.21;85.27
60437;BME280;46289;51.992;4.498;2023-01-30T02:43:25;101865.22;;;7.25;85.58
60437;BME280;46289;51.992;4.498;2023-01-30T02:45:36;101873.06;;;7.27;85.36
60437;BME280;46289;51.992;4.498;2023-01-30T02:47:55;101869.59;;;7.23;85.96
60437;BME280;46289;51.992;4.498;2023-01-30T02:50:07;101867.81;;;7.30;85.48
60437;BME280;46289;51.992;4.498;2023-01-30T02:52:17;101859.19;;;7.20;86.08
60437;BME280;46289;51.992;4.498;2023-01-30T02:54:23;101847.78;;;7.26;85.60
60437;BME280;46289;51.992;4.498;2023-01-30T02:56:28;101842.56;;;7.28;85.44
60437;BME280;46289;51.992;4.498;2023-01-30T02:58:37;101857.34;;;7.30;85.44
60437;BME280;46289;51.992;4.498;2023-01-30T03:00:59;101839.03;;;7.30;85.22
60437;BME280;46289;51.992;4.498;2023-01-30T03:03:38;101842.47;;;7.35;84.98
60437;BME280;46289;51.992;4.498;2023-01-30T03:06:08;101843.34;;;7.34;84.81
60437;BME280;46289;51.992;4.498;2023-01-30T03:08:24;101836.34;;;7.36;85.26
60437;BME280;46289;51.992;4.498;2023-01-30T03:10:37;101825.84;;;7.39;84.90
60437;BME280;46289;51.992;4.498;2023-01-30T03:12:49;101850.25;;;7.41;84.68
60437;BME280;46289;51.992;4.498;2023-01-30T03:14:59;101844.16;;;7.39;84.85
60437;BME280;46289;51.992;4.498;2023-01-30T03:17:08;101844.16;;;7.41;84.65
60437;BME280;46289;51.992;4.498;2023-01-30T03:19:19;101847.66;;;7.40;85.08
60437;BME280;46289;51.992;4.498;2023-01-30T03:21:27;101843.28;;;7.40;84.88
60437;BME280;46289;51.992;4.498;2023-01-30T03:23:32;101837.22;;;7.38;85.10
60437;BME280;46289;51.992;4.498;2023-01-30T03:25:38;101847.63;;;7.41;85.00
60437;BME280;46289;51.992;4.498;2023-01-30T03:27:45;101854.63;;;7.39;85.03
60437;BME280;46289;51.992;4.498;2023-01-30T03:29:50;101839.81;;;7.38;84.83
60437;BME280;46289;51.992;4.498;2023-01-30T03:31:55;101843.28;;;7.40;84.81
60437;BME280;46289;51.992;4.498;2023-01-30T03:34:01;101840.69;;;7.40;84.88
60437;BME280;46289;51.992;4.498;2023-01-30T03:36:09;101830.22;;;7.40;84.84
60437;BME280;46289;51.992;4.498;2023-01-30T03:38:15;101821.44;;;7.44;84.56
60437;BME280;46289;51.992;4.498;2023-01-30T03:40:21;101821.44;;;7.44;84.58
60437;BME280;46289;51.992;4.498;2023-01-30T03:42:26;101816.25;;;7.43;84.72
60437;BME280;46289;51.992;4.498;2023-01-30T03:44:31;101837.13;;;7.44;84.75
60437;BME280;46289;51.992;4.498;2023-01-30T03:46:38;101843.25;;;7.43;84.67
60437;BME280;46289;51.992;4.498;2023-01-30T03:48:43;101829.31;;;7.41;84.92
60437;BME280;46289;51.992;4.498;2023-01-30T03:50:50;101821.53;;;7.37;85.04
60437;BME280;46289;51.992;4.498;2023-01-30T03:52:58;101836.34;;;7.38;85.01
60437;BME280;46289;51.992;4.498;2023-01-30T03:55:03;101833.69;;;7.41;84.81
60437;BME280;46289;51.992;4.498;2023-01-30T03:57:11;101850.25;;;7.41;85.07
60437;BME280;46289;51.992;4.498;2023-01-30T03:59:16;101837.22;;;7.40;85.36
60437;BME280;46289;51.992;4.498;2023-01-30T04:01:21;101832.84;;;7.40;85.19
60437;BME280;46289;51.992;4.498;2023-01-30T04:03:26;101824.19;;;7.34;85.81
60437;BME280;46289;51.992;4.498;2023-01-30T04:05:32;101832.06;;;7.32;85.82
60437;BME280;46289;51.992;4.498;2023-01-30T04:07:37;101833.66;;;7.42;85.50
60437;BME280;46289;51.992;4.498;2023-01-30T04:09:44;101829.34;;;7.40;85.50
60437;BME280;46289;51.992;4.498;2023-01-30T04:11:49;101833.75;;;7.36;85.73
60437;BME280;46289;51.992;4.498;2023-01-30T04:13:54;101822.44;;;7.34;85.52
60437;BME280;46289;51.992;4.498;2023-01-30T04:16:24;101833.78;;;7.32;85.89
60437;BME280;46289;51.992;4.498;2023-01-30T04:18:29;101836.47;;;7.27;86.04
60437;BME280;46289;51.992;4.498;2023-01-30T04:20:38;101841.69;;;7.25;86.07
60437;BME280;46289;51.992;4.498;2023-01-30T04:22:43;101840.88;;;7.20;86.12
60437;BME280;46289;51.992;4.498;2023-01-30T04:24:53;101843.53;;;7.19;86.00
60437;BME280;46289;51.992;4.498;2023-01-30T04:26:58;101847.03;;;7.13;86.11
60437;BME280;46289;51.992;4.498;2023-01-30T04:29:03;101870.53;;;7.19;85.24
60437;BME280;46289;51.992;4.498;2023-01-30T04:31:08;101853.22;;;7.08;85.06
60437;BME280;46289;51.992;4.498;2023-01-30T04:33:13;101850.59;;;7.09;84.12
60437;BME280;46289;51.992;4.498;2023-01-30T04:35:18;101867.13;;;7.10;82.92
60437;BME280;46289;51.992;4.498;2023-01-30T04:37:23;101855.63;;;7.26;80.26
60437;BME280;46289;51.992;4.498;2023-01-30T04:39:27;101863.44;;;7.29;79.62
60437;BME280;46289;51.992;4.498;2023-01-30T04:41:35;101865.22;;;7.25;79.85
60437;BME280;46289;51.992;4.498;2023-01-30T04:43:40;101867.81;;;7.29;79.55
60437;BME280;46289;51.992;4.498;2023-01-30T04:45:46;101860.78;;;7.35;78.41
60437;BME280;46289;51.992;4.498;2023-01-30T04:47:51;101865.91;;;7.44;77.84
60437;BME280;46289;51.992;4.498;2023-01-30T04:49:58;101874.69;;;7.39;77.90
60437;BME280;46289;51.992;4.498;2023-01-30T04:52:03;101872.84;;;7.48;77.17
60437;BME280;46289;51.992;4.498;2023-01-30T04:54:08;101871.91;;;7.53;76.55
60437;BME280;46289;51.992;4.498;2023-01-30T04:56:13;101864.88;;;7.58;76.21
60437;BME280;46289;51.992;4.498;2023-01-30T04:58:24;101883.25;;;7.53;76.33
60437;BME280;46289;51.992;4.498;2023-01-30T05:00:30;101899.78;;;7.57;76.23
60437;BME280;46289;51.992;4.498;2023-01-30T05:02:35;101887.59;;;7.53;76.34
60437;BME280;46289;51.992;4.498;2023-01-30T05:04:40;101883.22;;;7.55;76.08
60437;BME280;46289;51.992;4.498;2023-01-30T05:06:46;101888.50;;;7.52;76.68
60437;BME280;46289;51.992;4.498;2023-01-30T05:08:53;101893.72;;;7.50;76.68
60437;BME280;46289;51.992;4.498;2023-01-30T05:10:58;101892.09;;;7.43;77.14
60437;BME280;46289;51.992;4.498;2023-01-30T05:13:03;101891.25;;;7.36;77.80
60437;BME280;46289;51.992;4.498;2023-01-30T05:15:12;101890.47;;;7.30;77.86
60437;BME280;46289;51.992;4.498;2023-01-30T05:17:18;101891.38;;;7.25;77.23
60437;BME280;46289;51.992;4.498;2023-01-30T05:19:23;101892.28;;;7.24;77.21
60437;BME280;46289;51.992;4.498;2023-01-30T05:21:28;101887.97;;;7.19;77.40
60437;BME280;46289;51.992;4.498;2023-01-30T05:23:33;101876.66;;;7.17;77.54
60437;BME280;46289;51.992;4.498;2023-01-30T05:25:47;101893.22;;;7.13;77.56
60437;BME280;46289;51.992;4.498;2023-01-30T05:27:52;101888.91;;;7.12;77.70
60437;BME280;46289;51.992;4.498;2023-01-30T05:29:58;101889.81;;;7.04;78.16
60437;BME280;46289;51.992;4.498;2023-01-30T05:32:05;101889.91;;;6.97;78.09
60437;BME280;46289;51.992;4.498;2023-01-30T05:34:11;101886.47;;;6.90;78.51
60437;BME280;46289;51.992;4.498;2023-01-30T05:36:18;101890.03;;;6.81;79.06
60437;BME280;46289;51.992;4.498;2023-01-30T05:38:24;101880.44;;;6.85;78.92
60437;BME280;46289;51.992;4.498;2023-01-30T05:40:29;101883.06;;;6.79;78.99
60437;BME280;46289;51.992;4.498;2023-01-30T05:42:36;101910.16;;;6.72;79.66
60437;BME280;46289;51.992;4.498;2023-01-30T05:44:41;101914.47;;;6.73;79.79
60437;BME280;46289;51.992;4.498;2023-01-30T05:46:49;101918.88;;;6.68;80.52
60437;BME280;46289;51.992;4.498;2023-01-30T05:48:56;101900.56;;;6.71;80.13
60437;BME280;46289;51.992;4.498;2023-01-30T05:51:13;101916.31;;;6.55;80.54
60437;BME280;46289;51.992;4.498;2023-01-30T05:53:20;101914.56;;;6.62;80.77
60437;BME280;46289;51.992;4.498;2023-01-30T05:55:25;101917.22;;;6.56;81.27
60437;BME280;46289;51.992;4.498;2023-01-30T05:57:31;101917.25;;;6.51;81.10
60437;BME280;46289;51.992;4.498;2023-01-30T05:59:38;101922.50;;;6.48;80.96
60437;BME280;46289;51.992;4.498;2023-01-30T06:01:44;101910.31;;;6.44;80.58
60437;BME280;46289;51.992;4.498;2023-01-30T06:03:49;101908.59;;;6.43;79.75
60437;BME280;46289;51.992;4.498;2023-01-30T06:05:57;101899.91;;;6.41;79.34
60437;BME280;46289;51.992;4.498;2023-01-30T06:08:02;101908.50;;;6.52;78.40
60437;BME280;46289;51.992;4.498;2023-01-30T06:10:10;101904.19;;;6.47;78.49
60437;BME280;46289;51.992;4.498;2023-01-30T06:12:18;101903.34;;;6.48;77.45
60437;BME280;46289;51.992;4.498;2023-01-30T06:14:23;101907.69;;;6.44;77.42
60437;BME280;46289;51.992;4.498;2023-01-30T06:16:28;101914.72;;;6.34;77.54
60437;BME280;46289;51.992;4.498;2023-01-30T06:18:33;101915.59;;;6.38;77.09
60437;BME280;46289;51.992;4.498;2023-01-30T06:20:49;101893.88;;;6.28;77.04
60437;BME280;46289;51.992;4.498;2023-01-30T06:22:56;101892.13;;;6.29;76.37
60437;BME280;46289;51.992;4.498;2023-01-30T06:25:03;101896.50;;;6.27;75.69
60437;BME280;46289;51.992;4.498;2023-01-30T06:27:09;101906.06;;;6.26;75.50
60437;BME280;46289;51.992;4.498;2023-01-30T06:29:18;101911.19;;;6.43;73.20
60437;BME280;46289;51.992;4.498;2023-01-30T06:31:23;101904.28;;;6.33;73.78
60437;BME280;46289;51.992;4.498;2023-01-30T06:33:28;101914.75;;;6.33;73.74
60437;BME280;46289;51.992;4.498;2023-01-30T06:35:33;101912.94;;;6.41;72.65
60437;BME280;46289;51.992;4.498;2023-01-30T06:37:40;101919.94;;;6.37;72.64
60437;BME280;46289;51.992;4.498;2023-01-30T06:39:52;101914.66;;;6.42;72.12
60437;BME280;46289;51.992;4.498;2023-01-30T06:41:57;101907.75;;;6.38;71.50
60437;BME280;46289;51.992;4.498;2023-01-30T06:44:03;101909.50;;;6.31;71.69
60437;BME280;46289;51.992;4.498;2023-01-30T06:46:08;101896.50;;;6.24;71.44
60437;BME280;46289;51.992;4.498;2023-01-30T06:48:16;101918.28;;;6.24;70.58
60437;BME280;46289;51.992;4.498;2023-01-30T06:50:22;101908.72;;;6.15;70.81
60437;BME280;46289;51.992;4.498;2023-01-30T06:52:28;101911.31;;;6.23;69.54
60437;BME280;46289;51.992;4.498;2023-01-30T06:54:33;101907.84;;;6.18;69.58
60437;BME280;46289;51.992;4.498;2023-01-30T06:56:41;101898.25;;;6.25;68.64
60437;BME280;46289;51.992;4.498;2023-01-30T06:58:48;101921.78;;;6.17;68.80
60437;BME280;46289;51.992;4.498;2023-01-30T07:00:53;101916.50;;;6.32;67.33
60437;BME280;46289;51.992;4.498;2023-01-30T07:02:58;101928.66;;;6.29;68.39
60437;BME280;46289;51.992;4.498;2023-01-30T07:05:05;101935.66;;;6.24;68.54
60437;BME280;46289;51.992;4.498;2023-01-30T07:07:10;101945.25;;;6.19;68.88
60437;BME280;46289;51.992;4.498;2023-01-30T07:09:18;101955.69;;;6.15;69.05
60437;BME280;46289;51.992;4.498;2023-01-30T07:11:23;101947.03;;;6.17;69.00
60437;BME280;46289;51.992;4.498;2023-01-30T07:13:30;101944.44;;;6.13;69.83
60437;BME280;46289;51.992;4.498;2023-01-30T07:15:39;101955.69;;;6.25;68.81
60437;BME280;46289;51.992;4.498;2023-01-30T07:17:48;101958.31;;;6.22;69.08
60437;BME280;46289;51.992;4.498;2023-01-30T07:19:55;101970.47;;;6.23;69.42
60437;BME280;46289;51.992;4.498;2023-01-30T07:22:00;101967.88;;;6.23;69.53
60437;BME280;46289;51.992;4.498;2023-01-30T07:24:07;101966.13;;;6.23;69.30
60437;BME280;46289;51.992;4.498;2023-01-30T07:26:12;101978.31;;;6.20;69.83
60437;BME280;46289;51.992;4.498;2023-01-30T07:28:17;101950.47;;;6.15;69.79
60437;BME280;46289;51.992;4.498;2023-01-30T07:30:26;101963.53;;;6.20;69.83
60437;BME280;46289;51.992;4.498;2023-01-30T07:32:31;101970.50;;;6.10;70.37
60437;BME280;46289;51.992;4.498;2023-01-30T07:34:38;101969.63;;;6.14;70.67
60437;BME280;46289;51.992;4.498;2023-01-30T07:36:43;101971.34;;;6.20;70.25
60437;BME280;46289;51.992;4.498;2023-01-30T07:38:48;101975.69;;;6.27;70.24
60437;BME280;46289;51.992;4.498;2023-01-30T07:40:56;101963.53;;;6.20;70.49
60437;BME280;46289;51.992;4.498;2023-01-30T07:43:03;101958.31;;;6.22;70.37
60437;BME280;46289;51.992;4.498;2023-01-30T07:45:13;101964.34;;;6.28;70.16
60437;BME280;46289;51.992;4.498;2023-01-30T07:47:22;101954.81;;;6.24;70.29
60437;BME280;46289;51.992;4.498;2023-01-30T07:49:27;101957.44;;;6.23;70.61
60437;BME280;46289;51.992;4.498;2023-01-30T07:51:35;101961.81;;;6.14;70.74
60437;BME280;46289;51.992;4.498;2023-01-30T07:53:40;101958.28;;;6.23;70.51
60437;BME280;46289;51.992;4.498;2023-01-30T07:55:54;101956.56;;;6.16;71.20
60437;BME280;46289;51.992;4.498;2023-01-30T07:57:59;101978.31;;;6.20;70.81
60437;BME280;46289;51.992;4.498;2023-01-30T08:00:06;101967.00;;;6.22;70.79
60437;BME280;46289;51.992;4.498;2023-01-30T08:02:11;101984.38;;;6.28;70.84
60437;BME280;46289;51.992;4.498;2023-01-30T08:04:19;101999.19;;;6.23;70.71
60437;BME280;46289;51.992;4.498;2023-01-30T08:06:24;101990.47;;;6.30;70.44
60437;BME280;46289;51.992;4.498;2023-01-30T08:08:29;102000.88;;;6.31;70.22
60437;BME280;46289;51.992;4.498;2023-01-30T08:10:36;102003.50;;;6.30;70.33
60437;BME280;46289;51.992;4.498;2023-01-30T08:12:41;102000.00;;;6.38;69.96
60437;BME280;46289;51.992;4.498;2023-01-30T08:14:47;102008.72;;;6.37;70.13
60437;BME280;46289;51.992;4.498;2023-01-30T08:16:52;101997.38;;;6.43;69.39
60437;BME280;46289;51.992;4.498;2023-01-30T08:18:57;101999.97;;;6.42;69.35
60437;BME280;46289;51.992;4.498;2023-01-30T08:21:10;101993.00;;;6.44;69.02
60437;BME280;46289;51.992;4.498;2023-01-30T08:23:14;101990.41;;;6.39;70.01
60437;BME280;46289;51.992;4.498;2023-01-30T08:25:19;101990.41;;;6.34;70.21
60437;BME280;46289;51.992;4.498;2023-01-30T08:27:25;101988.66;;;6.41;69.48
60437;BME280;46289;51.992;4.498;2023-01-30T08:29:30;102008.69;;;6.34;69.99
60437;BME280;46289;51.992;4.498;2023-01-30T08:31:38;102005.19;;;6.37;70.07
60437;BME280;46289;51.992;4.498;2023-01-30T08:33:47;102006.94;;;6.40;69.77
60437;BME280;46289;51.992;4.498;2023-01-30T08:35:52;101996.50;;;6.40;69.89
60437;BME280;46289;51.992;4.498;2023-01-30T08:37:59;101995.56;;;6.54;69.14
60437;BME280;46289;51.992;4.498;2023-01-30T08:40:08;101981.66;;;6.49;70.01
60437;BME280;46289;51.992;4.498;2023-01-30T08:42:16;102021.66;;;6.53;69.84
60437;BME280;46289;51.992;4.498;2023-01-30T08:44:23;102023.41;;;6.52;70.22
60437;BME280;46289;51.992;4.498;2023-01-30T08:46:28;102032.97;;;6.59;69.56
60437;BME280;46289;51.992;4.498;2023-01-30T08:48:37;102040.81;;;6.59;69.80
60437;BME280;46289;51.992;4.498;2023-01-30T08:50:51;102066.91;;;6.63;69.91
60437;BME280;46289;51.992;4.498;2023-01-30T08:53:02;102048.53;;;6.76;69.11
60437;BME280;46289;51.992;4.498;2023-01-30T08:55:08;102037.19;;;6.85;68.53
60437;BME280;46289;51.992;4.498;2023-01-30T08:57:15;102040.66;;;6.89;68.90
60437;BME280;46289;51.992;4.498;2023-01-30T08:59:20;102052.84;;;6.87;68.33
60437;BME280;46289;51.992;4.498;2023-01-30T09:01:25;102056.31;;;6.93;67.49
60437;BME280;46289;51.992;4.498;2023-01-30T09:03:30;102057.16;;;6.94;67.98
60437;BME280;46289;51.992;4.498;2023-01-30T09:05:38;102068.50;;;6.93;67.84
60437;BME280;46289;51.992;4.498;2023-01-30T09:07:49;102063.28;;;6.91;67.43
60437;BME280;46289;51.992;4.498;2023-01-30T09:09:57;102051.06;;;6.93;67.34
60437;BME280;46289;51.992;4.498;2023-01-30T09:12:02;102052.81;;;6.90;67.82
60437;BME280;46289;51.992;4.498;2023-01-30T09:14:07;102061.53;;;6.87;68.09
60437;BME280;46289;51.992;4.498;2023-01-30T09:16:12;102085.94;;;6.86;68.22
60437;BME280;46289;51.992;4.498;2023-01-30T09:18:17;102067.63;;;6.92;68.51
60437;BME280;46289;51.992;4.498;2023-01-30T09:20:22;102089.38;;;6.94;68.02
60437;BME280;46289;51.992;4.498;2023-01-30T09:22:27;102073.72;;;6.91;68.51
60437;BME280;46289;51.992;4.498;2023-01-30T09:24:32;102067.63;;;6.92;68.62
60437;BME280;46289;51.992;4.498;2023-01-30T09:26:40;102074.56;;;6.98;68.33
60437;BME280;46289;51.992;4.498;2023-01-30T09:28:47;102090.25;;;7.01;67.59
60437;BME280;46289;51.992;4.498;2023-01-30T09:30:52;102077.13;;;7.06;66.88
60437;BME280;46289;51.992;4.498;2023-01-30T09:32:57;102077.06;;;7.15;66.84
60437;BME280;46289;51.992;4.498;2023-01-30T09:35:03;102085.75;;;7.18;66.59
60437;BME280;46289;51.992;4.498;2023-01-30T09:37:09;102091.84;;;7.20;66.90
60437;BME280;46289;51.992;4.498;2023-01-30T09:39:14;102099.69;;;7.22;66.74
60437;BME280;46289;51.992;4.498;2023-01-30T09:41:33;102082.22;;;7.24;66.59
60437;BME280;46289;51.992;4.498;2023-01-30T09:43:56;102101.41;;;7.26;66.66
60437;BME280;46289;51.992;4.498;2023-01-30T09:46:19;102101.38;;;7.29;66.81
60437;BME280;46289;51.992;4.498;2023-01-30T09:48:30;102124.94;;;7.28;66.19
60437;BME280;46289;51.992;4.498;2023-01-30T09:53:30;102117.09;;;7.23;66.21
60437;BME280;46289;51.992;4.498;2023-01-30T09:55:42;102101.41;;;7.23;66.39
60437;BME280;46289;51.992;4.498;2023-01-30T09:57:48;102112.72;;;7.26;66.46
60437;BME280;46289;51.992;4.498;2023-01-30T10:00:03;102110.09;;;7.28;65.74
60437;BME280;46289;51.992;4.498;2023-01-30T10:02:23;102113.56;;;7.29;66.36
60437;BME280;46289;51.992;4.498;2023-01-30T10:04:33;102130.97;;;7.34;66.35
60437;BME280;46289;51.992;4.498;2023-01-30T10:06:52;102137.97;;;7.29;66.52
60437;BME280;46289;51.992;4.498;2023-01-30T10:09:02;102144.94;;;7.32;65.66
60437;BME280;46289;51.992;4.498;2023-01-30T10:11:21;102147.56;;;7.32;65.87
60437;BME280;46289;51.992;4.498;2023-01-30T10:13:44;102145.75;;;7.41;65.72
60437;BME280;46289;51.992;4.498;2023-01-30T10:16:00;102162.25;;;7.50;65.78
60437;BME280;46289;51.992;4.498;2023-01-30T10:18:31;102175.34;;;7.50;65.68
60437;BME280;46289;51.992;4.498;2023-01-30T10:20:48;102161.38;;;7.54;66.28
60437;BME280;46289;51.992;4.498;2023-01-30T10:23:08;102164.03;;;7.51;65.57
60437;BME280;46289;51.992;4.498;2023-01-30T10:25:26;102163.13;;;7.52;65.84
60437;BME280;46289;51.992;4.498;2023-01-30T10:27:35;102166.59;;;7.52;66.05
60437;BME280;46289;51.992;4.498;2023-01-30T10:29:46;102188.41;;;7.56;65.89
60437;BME280;46289;51.992;4.498;2023-01-30T10:32:00;102192.69;;;7.64;65.29
60437;BME280;46289;51.992;4.498;2023-01-30T10:34:12;102179.53;;;7.75;65.47
60437;BME280;46289;51.992;4.498;2023-01-30T10:36:22;102180.44;;;7.74;65.77
60437;BME280;46289;51.992;4.498;2023-01-30T10:38:33;102171.72;;;7.72;64.94
60437;BME280;46289;51.992;4.498;2023-01-30T10:40:41;102172.56;;;7.71;65.19
60437;BME280;46289;51.992;4.498;2023-01-30T10:42:57;102169.09;;;7.72;65.34
60437;BME280;46289;51.992;4.498;2023-01-30T10:45:11;102174.34;;;7.69;65.64
60437;BME280;46289;51.992;4.498;2023-01-30T10:47:46;102173.53;;;7.59;65.74
60437;BME280;46289;51.992;4.498;2023-01-30T10:49:55;102176.16;;;7.58;65.90
60437;BME280;46289;51.992;4.498;2023-01-30T10:52:21;102177.88;;;7.66;65.73
60437;BME280;46289;51.992;4.498;2023-01-30T10:54:36;102180.47;;;7.63;66.10
60437;BME280;46289;51.992;4.498;2023-01-30T10:56:50;102178.75;;;7.62;66.10
60437;BME280;46289;51.992;4.498;2023-01-30T10:59:05;102184.91;;;7.58;66.24
60437;BME280;46289;51.992;4.498;2023-01-30T11:01:16;102185.72;;;7.63;66.35
60437;BME280;46289;51.992;4.498;2023-01-30T11:03:33;102183.97;;;7.62;66.48
60437;BME280;46289;51.992;4.498;2023-01-30T11:05:47;102197.13;;;7.53;66.73
60437;BME280;46289;51.992;4.498;2023-01-30T11:07:53;102194.47;;;7.58;66.65
60437;BME280;46289;51.992;4.498;2023-01-30T11:09:58;102190.16;;;7.54;66.99
60437;BME280;46289;51.992;4.498;2023-01-30T11:12:04;102198.88;;;7.50;66.58
60437;BME280;46289;51.992;4.498;2023-01-30T11:14:10;102184.94;;;7.47;67.23
60437;BME280;46289;51.992;4.498;2023-01-30T11:16:18;102185.75;;;7.59;67.04
60437;BME280;46289;51.992;4.498;2023-01-30T11:18:26;102200.50;;;7.72;66.98
60437;BME280;46289;51.992;4.498;2023-01-30T11:21:01;102194.38;;;7.73;66.67
60437;BME280;46289;51.992;4.498;2023-01-30T11:23:08;102177.88;;;7.62;65.93
60437;BME280;46289;51.992;4.498;2023-01-30T11:25:25;102191.81;;;7.61;66.46